sensor_id;sensor_type;location;lat;lon;timestamp;temperature;humidity
21722;DHT22;11023;48.274;7.794;2022-07-25T00:00:37;21.80;99.90
21722;DHT22;11023;48.274;7.794;2022-07-25T00:03:04;21.80;99.90
21722;DHT22;11023;48.274;7.794;2022-07-25T00:05:29;21.70;99.90
21722;DHT22;11023;48.274;7.794;2022-07-25T00:07:55;21.70;99.90
21722;DHT22;11023;48.274;7.794;2022-07-25T00:10:21;21.60;99.90
21722;DHT22;11023;48.274;7.794;2022-07-25T00:12:46;21.60;99.90
21722;DHT22;11023;48.274;7.794;2022-07-25T00:15:12;21.60;99.90
21722;DHT22;11023;48.274;7.794;2022-07-25T00:17:38;21.60;99.90
21722;DHT22;11023;48.274;7.794;2022-07-25T00:20:05;21.50;99.90
21722;DHT22;11023;48.274;7.794;2022-07-25T00:22:31;21.50;99.90
21722;DHT22;11023;48.274;7.794;2022-07-25T00:24:57;21.50;99.90
21722;DHT22;11023;48.274;7.794;2022-07-25T00:27:22;21.50;99.90
21722;DHT22;11023;48.274;7.794;2022-07-25T00:29:48;21.40;99.90
21722;DHT22;11023;48.274;7.794;2022-07-25T00:32:14;21.40;99.90
21722;DHT22;11023;48.274;7.794;2022-07-25T00:34:39;21.30;99.90
21722;DHT22;11023;48.274;7.794;2022-07-25T00:37:05;21.30;99.90
21722;DHT22;11023;48.274;7.794;2022-07-25T00:39:31;21.20;99.90
21722;DHT22;11023;48.274;7.794;2022-07-25T00:41:57;21.10;99.90
21722;DHT22;11023;48.274;7.794;2022-07-25T00:44:29;21.00;99.90
21722;DHT22;11023;48.274;7.794;2022-07-25T00:46:55;21.00;99.90
21722;DHT22;11023;48.274;7.794;2022-07-25T00:49:22;20.90;99.90
21722;DHT22;11023;48.274;7.794;2022-07-25T00:51:47;20.90;99.90
21722;DHT22;11023;48.274;7.794;2022-07-25T00:54:14;20.90;99.90
21722;DHT22;11023;48.274;7.794;2022-07-25T00:56:40;20.90;99.90
21722;DHT22;11023;48.274;7.794;2022-07-25T00:59:06;20.80;99.90
21722;DHT22;11023;48.274;7.794;2022-07-25T01:01:32;20.70;99.90
21722;DHT22;11023;48.274;7.794;2022-07-25T01:03:58;20.70;99.90
21722;DHT22;11023;48.274;7.794;2022-07-25T01:06:24;20.70;99.90
21722;DHT22;11023;48.274;7.794;2022-07-25T01:08:51;20.70;99.90
21722;DHT22;11023;48.274;7.794;2022-07-25T01:11:17;20.70;99.90
21722;DHT22;11023;48.274;7.794;2022-07-25T01:13:42;20.70;99.90
21722;DHT22;11023;48.274;7.794;2022-07-25T01:16:08;20.70;99.90
21722;DHT22;11023;48.274;7.794;2022-07-25T01:18:34;20.60;99.90
21722;DHT22;11023;48.274;7.794;2022-07-25T01:21:00;20.60;99.90
21722;DHT22;11023;48.274;7.794;2022-07-25T01:23:26;20.60;99.90
21722;DHT22;11023;48.274;7.794;2022-07-25T01:25:52;20.60;99.90
21722;DHT22;11023;48.274;7.794;2022-07-25T01:28:18;20.60;99.90
21722;DHT22;11023;48.274;7.794;2022-07-25T01:30:44;20.60;99.90
21722;DHT22;11023;48.274;7.794;2022-07-25T01:33:15;20.60;99.90
21722;DHT22;11023;48.274;7.794;2022-07-25T01:35:41;20.60;99.90
21722;DHT22;11023;48.274;7.794;2022-07-25T01:38:07;20.50;99.90
21722;DHT22;11023;48.274;7.794;2022-07-25T01:40:32;20.50;99.90
21722;DHT22;11023;48.274;7.794;2022-07-25T01:42:58;20.40;99.90
21722;DHT22;11023;48.274;7.794;2022-07-25T01:45:24;20.40;99.90
21722;DHT22;11023;48.274;7.794;2022-07-25T01:47:49;20.40;99.90
21722;DHT22;11023;48.274;7.794;2022-07-25T01:50:15;20.40;99.90
21722;DHT22;11023;48.274;7.794;2022-07-25T01:52:41;20.40;99.90
21722;DHT22;11023;48.274;7.794;2022-07-25T01:55:07;20.40;99.90
21722;DHT22;11023;48.274;7.794;2022-07-25T01:57:33;20.40;99.90
21722;DHT22;11023;48.274;7.794;2022-07-25T01:59:59;20.40;99.90
21722;DHT22;11023;48.274;7.794;2022-07-25T02:02:25;20.30;99.90
21722;DHT22;11023;48.274;7.794;2022-07-25T02:04:51;20.30;99.90
21722;DHT22;11023;48.274;7.794;2022-07-25T02:07:17;20.30;99.90
21722;DHT22;11023;48.274;7.794;2022-07-25T02:09:42;20.30;99.90
21722;DHT22;11023;48.274;7.794;2022-07-25T02:12:08;20.20;99.90
21722;DHT22;11023;48.274;7.794;2022-07-25T02:14:34;20.20;99.90
21722;DHT22;11023;48.274;7.794;2022-07-25T02:16:59;20.10;99.90
21722;DHT22;11023;48.274;7.794;2022-07-25T02:19:25;20.10;99.90
21722;DHT22;11023;48.274;7.794;2022-07-25T02:21:51;20.00;99.90
21722;DHT22;11023;48.274;7.794;2022-07-25T02:24:16;20.00;99.90
21722;DHT22;11023;48.274;7.794;2022-07-25T02:26:42;20.00;99.90
21722;DHT22;11023;48.274;7.794;2022-07-25T02:29:08;19.90;99.90
21722;DHT22;11023;48.274;7.794;2022-07-25T02:31:33;19.90;99.90
21722;DHT22;11023;48.274;7.794;2022-07-25T02:33:59;19.90;99.90
21722;DHT22;11023;48.274;7.794;2022-07-25T02:36:25;19.90;99.90
21722;DHT22;11023;48.274;7.794;2022-07-25T02:38:50;19.80;99.90
21722;DHT22;11023;48.274;7.794;2022-07-25T02:41:16;19.90;99.90
21722;DHT22;11023;48.274;7.794;2022-07-25T02:43:42;19.90;99.90
21722;DHT22;11023;48.274;7.794;2022-07-25T02:46:07;19.90;99.90
21722;DHT22;11023;48.274;7.794;2022-07-25T02:48:33;19.80;99.90
21722;DHT22;11023;48.274;7.794;2022-07-25T02:50:59;19.80;99.90
21722;DHT22;11023;48.274;7.794;2022-07-25T02:53:24;19.80;99.90
21722;DHT22;11023;48.274;7.794;2022-07-25T02:55:50;19.80;99.90
21722;DHT22;11023;48.274;7.794;2022-07-25T02:58:15;19.70;99.90
21722;DHT22;11023;48.274;7.794;2022-07-25T03:00:42;19.70;99.90
21722;DHT22;11023;48.274;7.794;2022-07-25T03:03:08;19.80;99.90
21722;DHT22;11023;48.274;7.794;2022-07-25T03:05:34;19.80;99.90
21722;DHT22;11023;48.274;7.794;2022-07-25T03:07:59;19.80;99.90
21722;DHT22;11023;48.274;7.794;2022-07-25T03:10:25;19.90;99.90
21722;DHT22;11023;48.274;7.794;2022-07-25T03:12:51;19.90;99.90
21722;DHT22;11023;48.274;7.794;2022-07-25T03:15:16;19.90;99.90
21722;DHT22;11023;48.274;7.794;2022-07-25T03:17:42;19.90;99.90
21722;DHT22;11023;48.274;7.794;2022-07-25T03:20:09;19.90;99.90
21722;DHT22;11023;48.274;7.794;2022-07-25T03:22:35;19.90;99.90
21722;DHT22;11023;48.274;7.794;2022-07-25T03:25:01;19.90;99.90
21722;DHT22;11023;48.274;7.794;2022-07-25T03:27:27;19.90;99.90
21722;DHT22;11023;48.274;7.794;2022-07-25T03:29:52;19.90;99.90
21722;DHT22;11023;48.274;7.794;2022-07-25T03:32:19;19.90;99.90
21722;DHT22;11023;48.274;7.794;2022-07-25T03:34:44;19.80;99.90
21722;DHT22;11023;48.274;7.794;2022-07-25T03:37:10;19.70;99.90
21722;DHT22;11023;48.274;7.794;2022-07-25T03:39:36;19.70;99.90
21722;DHT22;11023;48.274;7.794;2022-07-25T03:42:02;19.60;99.90
21722;DHT22;11023;48.274;7.794;2022-07-25T03:44:28;19.60;99.90
21722;DHT22;11023;48.274;7.794;2022-07-25T03:46:54;19.60;99.90
21722;DHT22;11023;48.274;7.794;2022-07-25T03:49:19;19.50;99.90
21722;DHT22;11023;48.274;7.794;2022-07-25T03:51:45;19.50;99.90
21722;DHT22;11023;48.274;7.794;2022-07-25T03:54:11;19.50;99.90
21722;DHT22;11023;48.274;7.794;2022-07-25T03:56:45;19.50;99.90
21722;DHT22;11023;48.274;7.794;2022-07-25T03:59:13;19.50;99.90
21722;DHT22;11023;48.274;7.794;2022-07-25T04:01:40;19.50;99.90
21722;DHT22;11023;48.274;7.794;2022-07-25T04:04:05;19.40;99.90
21722;DHT22;11023;48.274;7.794;2022-07-25T04:06:31;19.40;99.90
21722;DHT22;11023;48.274;7.794;2022-07-25T04:08:57;19.40;99.90
21722;DHT22;11023;48.274;7.794;2022-07-25T04:11:23;19.30;99.90
21722;DHT22;11023;48.274;7.794;2022-07-25T04:13:49;19.30;99.90
21722;DHT22;11023;48.274;7.794;2022-07-25T04:16:15;19.30;99.90
21722;DHT22;11023;48.274;7.794;2022-07-25T04:18:41;19.30;99.90
21722;DHT22;11023;48.274;7.794;2022-07-25T04:21:07;19.30;99.90
21722;DHT22;11023;48.274;7.794;2022-07-25T04:23:33;19.30;99.90
21722;DHT22;11023;48.274;7.794;2022-07-25T04:25:59;19.30;99.90
21722;DHT22;11023;48.274;7.794;2022-07-25T04:28:25;19.30;99.90
21722;DHT22;11023;48.274;7.794;2022-07-25T04:30:50;19.40;99.90
21722;DHT22;11023;48.274;7.794;2022-07-25T04:33:17;19.30;99.90
21722;DHT22;11023;48.274;7.794;2022-07-25T04:35:43;19.40;99.90
21722;DHT22;11023;48.274;7.794;2022-07-25T04:38:09;19.40;99.90
21722;DHT22;11023;48.274;7.794;2022-07-25T04:40:35;19.40;99.90
21722;DHT22;11023;48.274;7.794;2022-07-25T04:43:01;19.50;99.90
21722;DHT22;11023;48.274;7.794;2022-07-25T04:45:27;19.50;99.90
21722;DHT22;11023;48.274;7.794;2022-07-25T04:47:53;19.50;99.90
21722;DHT22;11023;48.274;7.794;2022-07-25T04:50:19;19.60;99.90
21722;DHT22;11023;48.274;7.794;2022-07-25T04:52:44;19.70;99.90
21722;DHT22;11023;48.274;7.794;2022-07-25T04:55:11;19.70;99.90
21722;DHT22;11023;48.274;7.794;2022-07-25T04:57:37;19.70;99.90
21722;DHT22;11023;48.274;7.794;2022-07-25T05:00:04;19.80;99.90
21722;DHT22;11023;48.274;7.794;2022-07-25T05:02:30;19.80;99.90
21722;DHT22;11023;48.274;7.794;2022-07-25T05:04:56;19.80;99.90
21722;DHT22;11023;48.274;7.794;2022-07-25T05:07:22;19.90;99.90
21722;DHT22;11023;48.274;7.794;2022-07-25T05:09:48;19.90;99.90
21722;DHT22;11023;48.274;7.794;2022-07-25T05:12:13;19.90;99.90
21722;DHT22;11023;48.274;7.794;2022-07-25T05:14:39;20.00;99.90
21722;DHT22;11023;48.274;7.794;2022-07-25T05:17:05;20.00;99.90
21722;DHT22;11023;48.274;7.794;2022-07-25T05:19:31;20.10;99.90
21722;DHT22;11023;48.274;7.794;2022-07-25T05:21:56;20.10;99.90
21722;DHT22;11023;48.274;7.794;2022-07-25T05:24:22;20.10;99.90
21722;DHT22;11023;48.274;7.794;2022-07-25T05:26:48;20.20;99.90
21722;DHT22;11023;48.274;7.794;2022-07-25T05:29:14;20.20;99.90
21722;DHT22;11023;48.274;7.794;2022-07-25T05:31:40;20.30;99.90
21722;DHT22;11023;48.274;7.794;2022-07-25T05:34:06;20.40;99.90
21722;DHT22;11023;48.274;7.794;2022-07-25T05:36:32;20.40;99.90
21722;DHT22;11023;48.274;7.794;2022-07-25T05:38:58;20.50;99.90
21722;DHT22;11023;48.274;7.794;2022-07-25T05:41:24;20.60;99.90
21722;DHT22;11023;48.274;7.794;2022-07-25T05:43:49;20.60;99.90
21722;DHT22;11023;48.274;7.794;2022-07-25T05:46:15;20.80;99.90
21722;DHT22;11023;48.274;7.794;2022-07-25T05:48:42;20.90;99.90
21722;DHT22;11023;48.274;7.794;2022-07-25T05:51:08;21.10;99.90
21722;DHT22;11023;48.274;7.794;2022-07-25T05:53:33;21.20;99.90
21722;DHT22;11023;48.274;7.794;2022-07-25T05:55:59;21.30;99.90
21722;DHT22;11023;48.274;7.794;2022-07-25T05:58:25;21.50;99.90
21722;DHT22;11023;48.274;7.794;2022-07-25T06:00:51;21.60;99.90
21722;DHT22;11023;48.274;7.794;2022-07-25T06:03:17;21.60;99.90
21722;DHT22;11023;48.274;7.794;2022-07-25T06:05:44;21.80;99.90
21722;DHT22;11023;48.274;7.794;2022-07-25T06:08:09;21.90;99.90
21722;DHT22;11023;48.274;7.794;2022-07-25T06:10:35;22.00;99.90
21722;DHT22;11023;48.274;7.794;2022-07-25T06:13:01;22.20;99.90
21722;DHT22;11023;48.274;7.794;2022-07-25T06:15:26;22.20;99.90
21722;DHT22;11023;48.274;7.794;2022-07-25T06:17:52;22.40;99.90
21722;DHT22;11023;48.274;7.794;2022-07-25T06:20:18;22.50;99.90
21722;DHT22;11023;48.274;7.794;2022-07-25T06:22:44;22.60;99.90
21722;DHT22;11023;48.274;7.794;2022-07-25T06:25:09;22.70;99.90
21722;DHT22;11023;48.274;7.794;2022-07-25T06:27:36;22.80;99.90
21722;DHT22;11023;48.274;7.794;2022-07-25T06:30:03;22.90;99.90
21722;DHT22;11023;48.274;7.794;2022-07-25T06:32:29;22.90;99.90
21722;DHT22;11023;48.274;7.794;2022-07-25T06:34:55;23.00;99.90
21722;DHT22;11023;48.274;7.794;2022-07-25T06:37:21;23.10;99.90
21722;DHT22;11023;48.274;7.794;2022-07-25T06:39:46;23.20;99.90
21722;DHT22;11023;48.274;7.794;2022-07-25T06:42:12;23.30;99.90
21722;DHT22;11023;48.274;7.794;2022-07-25T06:44:38;23.40;99.90
21722;DHT22;11023;48.274;7.794;2022-07-25T06:47:03;23.50;99.90
21722;DHT22;11023;48.274;7.794;2022-07-25T06:49:30;23.60;99.90
21722;DHT22;11023;48.274;7.794;2022-07-25T06:51:56;23.70;99.90
21722;DHT22;11023;48.274;7.794;2022-07-25T06:54:21;23.80;99.90
21722;DHT22;11023;48.274;7.794;2022-07-25T06:56:48;24.00;99.90
21722;DHT22;11023;48.274;7.794;2022-07-25T06:59:13;24.00;99.90
21722;DHT22;11023;48.274;7.794;2022-07-25T07:01:39;24.10;99.90
21722;DHT22;11023;48.274;7.794;2022-07-25T07:04:05;24.20;99.90
21722;DHT22;11023;48.274;7.794;2022-07-25T07:06:31;24.30;99.90
21722;DHT22;11023;48.274;7.794;2022-07-25T07:08:57;24.30;99.90
21722;DHT22;11023;48.274;7.794;2022-07-25T07:11:23;24.50;99.90
21722;DHT22;11023;48.274;7.794;2022-07-25T07:13:49;24.60;99.90
21722;DHT22;11023;48.274;7.794;2022-07-25T07:16:14;24.60;99.90
21722;DHT22;11023;48.274;7.794;2022-07-25T07:18:40;24.70;99.90
21722;DHT22;11023;48.274;7.794;2022-07-25T07:21:06;24.80;99.90
21722;DHT22;11023;48.274;7.794;2022-07-25T07:23:31;24.90;99.90
21722;DHT22;11023;48.274;7.794;2022-07-25T07:25:57;24.90;99.90
21722;DHT22;11023;48.274;7.794;2022-07-25T07:28:23;24.90;99.90
21722;DHT22;11023;48.274;7.794;2022-07-25T07:30:48;25.00;99.90
21722;DHT22;11023;48.274;7.794;2022-07-25T07:33:14;25.10;99.90
21722;DHT22;11023;48.274;7.794;2022-07-25T07:35:43;25.20;99.90
21722;DHT22;11023;48.274;7.794;2022-07-25T07:38:09;25.30;99.90
21722;DHT22;11023;48.274;7.794;2022-07-25T07:40:36;25.40;99.90
21722;DHT22;11023;48.274;7.794;2022-07-25T07:43:01;25.50;99.90
21722;DHT22;11023;48.274;7.794;2022-07-25T07:45:29;25.50;99.90
21722;DHT22;11023;48.274;7.794;2022-07-25T07:47:55;25.70;99.90
21722;DHT22;11023;48.274;7.794;2022-07-25T07:50:24;25.80;99.90
21722;DHT22;11023;48.274;7.794;2022-07-25T07:52:52;25.90;99.90
21722;DHT22;11023;48.274;7.794;2022-07-25T07:55:18;26.00;99.90
21722;DHT22;11023;48.274;7.794;2022-07-25T07:58:02;26.10;99.90
21722;DHT22;11023;48.274;7.794;2022-07-25T08:00:29;26.30;99.90
21722;DHT22;11023;48.274;7.794;2022-07-25T08:03:01;26.40;99.90
21722;DHT22;11023;48.274;7.794;2022-07-25T08:05:29;26.50;99.90
21722;DHT22;11023;48.274;7.794;2022-07-25T08:07:55;26.50;99.90
21722;DHT22;11023;48.274;7.794;2022-07-25T08:10:23;26.70;99.90
21722;DHT22;11023;48.274;7.794;2022-07-25T08:12:49;26.90;99.90
21722;DHT22;11023;48.274;7.794;2022-07-25T08:15:16;26.90;99.90
21722;DHT22;11023;48.274;7.794;2022-07-25T08:17:42;27.10;99.90
21722;DHT22;11023;48.274;7.794;2022-07-25T08:20:09;27.20;99.90
21722;DHT22;11023;48.274;7.794;2022-07-25T08:22:40;27.30;99.90
21722;DHT22;11023;48.274;7.794;2022-07-25T08:25:07;27.50;99.90
21722;DHT22;11023;48.274;7.794;2022-07-25T08:27:33;27.70;99.90
21722;DHT22;11023;48.274;7.794;2022-07-25T08:29:59;27.80;99.90
21722;DHT22;11023;48.274;7.794;2022-07-25T08:32:26;28.00;99.90
21722;DHT22;11023;48.274;7.794;2022-07-25T08:34:53;28.10;99.90
21722;DHT22;11023;48.274;7.794;2022-07-25T08:37:19;28.20;99.90
21722;DHT22;11023;48.274;7.794;2022-07-25T08:39:45;28.40;99.90
21722;DHT22;11023;48.274;7.794;2022-07-25T08:42:10;28.50;99.90
21722;DHT22;11023;48.274;7.794;2022-07-25T08:44:40;28.60;99.90
21722;DHT22;11023;48.274;7.794;2022-07-25T08:47:07;28.70;99.90
21722;DHT22;11023;48.274;7.794;2022-07-25T08:49:34;28.90;99.90
21722;DHT22;11023;48.274;7.794;2022-07-25T08:52:02;29.00;99.90
21722;DHT22;11023;48.274;7.794;2022-07-25T08:54:30;29.10;99.90
21722;DHT22;11023;48.274;7.794;2022-07-25T08:56:55;29.20;99.90
21722;DHT22;11023;48.274;7.794;2022-07-25T08:59:21;29.40;99.90
21722;DHT22;11023;48.274;7.794;2022-07-25T09:01:47;29.50;99.90
21722;DHT22;11023;48.274;7.794;2022-07-25T09:04:12;29.70;99.90
21722;DHT22;11023;48.274;7.794;2022-07-25T09:06:48;29.80;99.90
21722;DHT22;11023;48.274;7.794;2022-07-25T09:09:14;30.10;99.90
21722;DHT22;11023;48.274;7.794;2022-07-25T09:11:39;30.20;99.90
21722;DHT22;11023;48.274;7.794;2022-07-25T09:14:08;30.30;99.90
21722;DHT22;11023;48.274;7.794;2022-07-25T09:16:36;30.50;99.90
21722;DHT22;11023;48.274;7.794;2022-07-25T09:19:14;30.60;99.90
21722;DHT22;11023;48.274;7.794;2022-07-25T09:21:42;30.80;99.90
21722;DHT22;11023;48.274;7.794;2022-07-25T09:26:45;31.00;99.90
21722;DHT22;11023;48.274;7.794;2022-07-25T09:31:51;31.30;99.90
21722;DHT22;11023;48.274;7.794;2022-07-25T09:34:39;31.50;99.90
21722;DHT22;11023;48.274;7.794;2022-07-25T09:37:09;31.60;99.90
21722;DHT22;11023;48.274;7.794;2022-07-25T09:42:20;31.80;99.90
21722;DHT22;11023;48.274;7.794;2022-07-25T09:45:06;31.90;99.90
21722;DHT22;11023;48.274;7.794;2022-07-25T09:47:35;32.10;99.90
21722;DHT22;11023;48.274;7.794;2022-07-25T09:50:02;32.20;99.90
21722;DHT22;11023;48.274;7.794;2022-07-25T09:52:28;32.40;99.90
21722;DHT22;11023;48.274;7.794;2022-07-25T09:54:54;32.60;99.90
21722;DHT22;11023;48.274;7.794;2022-07-25T09:57:23;32.80;99.90
21722;DHT22;11023;48.274;7.794;2022-07-25T09:59:50;32.90;99.90
21722;DHT22;11023;48.274;7.794;2022-07-25T10:07:50;33.20;99.90
21722;DHT22;11023;48.274;7.794;2022-07-25T10:10:28;33.40;99.90
21722;DHT22;11023;48.274;7.794;2022-07-25T10:13:09;33.40;99.90
21722;DHT22;11023;48.274;7.794;2022-07-25T10:15:51;33.60;99.90
21722;DHT22;11023;48.274;7.794;2022-07-25T10:18:22;33.70;99.90
21722;DHT22;11023;48.274;7.794;2022-07-25T10:20:51;33.80;99.90
21722;DHT22;11023;48.274;7.794;2022-07-25T10:23:25;33.80;99.90
21722;DHT22;11023;48.274;7.794;2022-07-25T10:26:07;33.90;99.90
21722;DHT22;11023;48.274;7.794;2022-07-25T10:31:01;34.40;99.90
21722;DHT22;11023;48.274;7.794;2022-07-25T10:33:26;34.70;99.90
21722;DHT22;11023;48.274;7.794;2022-07-25T10:35:52;34.90;99.90
21722;DHT22;11023;48.274;7.794;2022-07-25T10:38:24;35.20;99.90
21722;DHT22;11023;48.274;7.794;2022-07-25T10:40:52;35.30;99.90
21722;DHT22;11023;48.274;7.794;2022-07-25T10:43:21;35.50;99.90
21722;DHT22;11023;48.274;7.794;2022-07-25T10:48:25;35.50;99.90
21722;DHT22;11023;48.274;7.794;2022-07-25T10:51:02;35.50;99.90
21722;DHT22;11023;48.274;7.794;2022-07-25T10:56:17;35.40;99.90
21722;DHT22;11023;48.274;7.794;2022-07-25T10:58:51;35.40;99.90
21722;DHT22;11023;48.274;7.794;2022-07-25T11:01:25;35.40;99.90
21722;DHT22;11023;48.274;7.794;2022-07-25T11:03:52;35.50;99.90
21722;DHT22;11023;48.274;7.794;2022-07-25T11:06:35;35.60;99.90
21722;DHT22;11023;48.274;7.794;2022-07-25T11:09:20;35.60;99.90
21722;DHT22;11023;48.274;7.794;2022-07-25T11:11:48;35.60;99.90
21722;DHT22;11023;48.274;7.794;2022-07-25T11:16:46;35.50;99.90
21722;DHT22;11023;48.274;7.794;2022-07-25T11:19:27;35.40;99.90
21722;DHT22;11023;48.274;7.794;2022-07-25T11:21:58;35.40;99.90
21722;DHT22;11023;48.274;7.794;2022-07-25T11:24:35;35.40;99.90
21722;DHT22;11023;48.274;7.794;2022-07-25T11:27:01;35.30;99.90
21722;DHT22;11023;48.274;7.794;2022-07-25T11:29:27;35.30;99.90
21722;DHT22;11023;48.274;7.794;2022-07-25T11:31:55;35.30;99.90
21722;DHT22;11023;48.274;7.794;2022-07-25T11:34:27;35.50;99.90
21722;DHT22;11023;48.274;7.794;2022-07-25T11:36:55;35.70;99.90
21722;DHT22;11023;48.274;7.794;2022-07-25T11:39:30;35.80;99.90
21722;DHT22;11023;48.274;7.794;2022-07-25T11:42:00;36.00;99.90
21722;DHT22;11023;48.274;7.794;2022-07-25T11:44:40;36.10;99.80
21722;DHT22;11023;48.274;7.794;2022-07-25T11:47:09;36.30;99.90
21722;DHT22;11023;48.274;7.794;2022-07-25T11:49:48;36.50;99.90
21722;DHT22;11023;48.274;7.794;2022-07-25T11:52:30;36.70;99.70
21722;DHT22;11023;48.274;7.794;2022-07-25T11:55:26;36.90;99.70
21722;DHT22;11023;48.274;7.794;2022-07-25T11:57:58;37.10;98.50
21722;DHT22;11023;48.274;7.794;2022-07-25T12:00:24;37.20;97.70
21722;DHT22;11023;48.274;7.794;2022-07-25T12:02:50;37.40;98.10
21722;DHT22;11023;48.274;7.794;2022-07-25T12:05:18;37.40;97.40
21722;DHT22;11023;48.274;7.794;2022-07-25T12:07:45;37.50;97.30
21722;DHT22;11023;48.274;7.794;2022-07-25T12:10:18;37.60;96.30
21722;DHT22;11023;48.274;7.794;2022-07-25T12:12:54;37.60;95.90
21722;DHT22;11023;48.274;7.794;2022-07-25T12:15:39;37.40;95.50
21722;DHT22;11023;48.274;7.794;2022-07-25T12:18:06;37.20;95.70
21722;DHT22;11023;48.274;7.794;2022-07-25T12:20:43;37.20;96.20
21722;DHT22;11023;48.274;7.794;2022-07-25T12:23:10;36.80;94.80
21722;DHT22;11023;48.274;7.794;2022-07-25T12:25:42;36.60;95.60
21722;DHT22;11023;48.274;7.794;2022-07-25T12:28:08;36.70;96.20
21722;DHT22;11023;48.274;7.794;2022-07-25T12:30:36;37.00;98.20
21722;DHT22;11023;48.274;7.794;2022-07-25T12:33:03;37.40;96.50
21722;DHT22;11023;48.274;7.794;2022-07-25T12:35:30;37.50;95.00
21722;DHT22;11023;48.274;7.794;2022-07-25T12:37:56;37.50;95.40
21722;DHT22;11023;48.274;7.794;2022-07-25T12:40:21;37.50;95.10
21722;DHT22;11023;48.274;7.794;2022-07-25T12:42:48;37.50;95.40
21722;DHT22;11023;48.274;7.794;2022-07-25T12:45:14;37.60;95.10
21722;DHT22;11023;48.274;7.794;2022-07-25T12:47:45;37.70;94.10
21722;DHT22;11023;48.274;7.794;2022-07-25T12:50:11;37.80;94.20
21722;DHT22;11023;48.274;7.794;2022-07-25T12:52:38;37.90;94.10
21722;DHT22;11023;48.274;7.794;2022-07-25T12:55:06;37.80;93.10
21722;DHT22;11023;48.274;7.794;2022-07-25T12:57:37;38.00;93.60
21722;DHT22;11023;48.274;7.794;2022-07-25T13:00:04;38.00;92.70
21722;DHT22;11023;48.274;7.794;2022-07-25T13:02:32;38.00;92.60
21722;DHT22;11023;48.274;7.794;2022-07-25T13:04:58;38.00;92.30
21722;DHT22;11023;48.274;7.794;2022-07-25T13:07:24;38.00;92.90
21722;DHT22;11023;48.274;7.794;2022-07-25T13:09:50;37.80;91.80
21722;DHT22;11023;48.274;7.794;2022-07-25T13:12:15;37.50;92.60
21722;DHT22;11023;48.274;7.794;2022-07-25T13:14:41;37.40;92.70
21722;DHT22;11023;48.274;7.794;2022-07-25T13:17:07;37.30;92.90
21722;DHT22;11023;48.274;7.794;2022-07-25T13:19:33;37.20;93.00
21722;DHT22;11023;48.274;7.794;2022-07-25T13:21:58;37.00;93.70
21722;DHT22;11023;48.274;7.794;2022-07-25T13:24:24;37.00;94.30
21722;DHT22;11023;48.274;7.794;2022-07-25T13:26:49;36.90;94.50
21722;DHT22;11023;48.274;7.794;2022-07-25T13:29:15;36.90;95.40
21722;DHT22;11023;48.274;7.794;2022-07-25T13:31:41;36.90;95.00
21722;DHT22;11023;48.274;7.794;2022-07-25T13:34:07;36.90;95.70
21722;DHT22;11023;48.274;7.794;2022-07-25T13:36:34;36.80;95.10
21722;DHT22;11023;48.274;7.794;2022-07-25T13:39:00;36.80;95.30
21722;DHT22;11023;48.274;7.794;2022-07-25T13:41:26;36.70;94.00
21722;DHT22;11023;48.274;7.794;2022-07-25T13:43:52;36.70;93.80
21722;DHT22;11023;48.274;7.794;2022-07-25T13:46:18;36.90;93.10
21722;DHT22;11023;48.274;7.794;2022-07-25T13:48:44;36.80;92.50
21722;DHT22;11023;48.274;7.794;2022-07-25T13:51:10;36.80;92.60
21722;DHT22;11023;48.274;7.794;2022-07-25T13:53:36;36.70;92.60
21722;DHT22;11023;48.274;7.794;2022-07-25T13:56:01;36.60;93.40
21722;DHT22;11023;48.274;7.794;2022-07-25T13:58:27;36.40;93.30
21722;DHT22;11023;48.274;7.794;2022-07-25T14:00:53;36.30;93.00
21722;DHT22;11023;48.274;7.794;2022-07-25T14:03:19;36.20;93.40
21722;DHT22;11023;48.274;7.794;2022-07-25T14:05:45;36.20;92.90
21722;DHT22;11023;48.274;7.794;2022-07-25T14:08:11;36.20;92.50
21722;DHT22;11023;48.274;7.794;2022-07-25T14:10:37;36.40;93.00
21722;DHT22;11023;48.274;7.794;2022-07-25T14:13:03;36.40;92.60
21722;DHT22;11023;48.274;7.794;2022-07-25T14:15:29;36.20;92.70
21722;DHT22;11023;48.274;7.794;2022-07-25T14:17:55;36.10;93.60
21722;DHT22;11023;48.274;7.794;2022-07-25T14:20:20;36.10;93.50
21722;DHT22;11023;48.274;7.794;2022-07-25T14:22:46;36.00;93.90
21722;DHT22;11023;48.274;7.794;2022-07-25T14:25:12;35.90;93.90
21722;DHT22;11023;48.274;7.794;2022-07-25T14:27:38;35.70;94.30
21722;DHT22;11023;48.274;7.794;2022-07-25T14:30:05;35.60;94.50
21722;DHT22;11023;48.274;7.794;2022-07-25T14:32:32;35.50;94.40
21722;DHT22;11023;48.274;7.794;2022-07-25T14:34:57;35.50;95.10
21722;DHT22;11023;48.274;7.794;2022-07-25T14:37:26;35.60;95.10
21722;DHT22;11023;48.274;7.794;2022-07-25T14:39:53;35.80;94.80
21722;DHT22;11023;48.274;7.794;2022-07-25T14:42:18;36.10;95.70
21722;DHT22;11023;48.274;7.794;2022-07-25T14:44:44;36.30;94.70
21722;DHT22;11023;48.274;7.794;2022-07-25T14:47:10;36.50;93.70
21722;DHT22;11023;48.274;7.794;2022-07-25T14:49:35;36.30;93.70
21722;DHT22;11023;48.274;7.794;2022-07-25T14:52:01;36.20;94.70
21722;DHT22;11023;48.274;7.794;2022-07-25T14:54:27;36.10;95.30
21722;DHT22;11023;48.274;7.794;2022-07-25T14:56:56;35.90;95.50
21722;DHT22;11023;48.274;7.794;2022-07-25T14:59:22;35.80;96.20
21722;DHT22;11023;48.274;7.794;2022-07-25T15:01:48;35.70;96.40
21722;DHT22;11023;48.274;7.794;2022-07-25T15:04:14;35.50;96.70
21722;DHT22;11023;48.274;7.794;2022-07-25T15:06:39;35.30;97.20
21722;DHT22;11023;48.274;7.794;2022-07-25T15:09:05;35.30;97.80
21722;DHT22;11023;48.274;7.794;2022-07-25T15:11:31;35.20;98.20
21722;DHT22;11023;48.274;7.794;2022-07-25T15:13:57;35.10;98.30
21722;DHT22;11023;48.274;7.794;2022-07-25T15:16:23;35.10;98.10
21722;DHT22;11023;48.274;7.794;2022-07-25T15:18:49;34.90;98.10
21722;DHT22;11023;48.274;7.794;2022-07-25T15:21:15;34.80;98.20
21722;DHT22;11023;48.274;7.794;2022-07-25T15:23:40;34.80;98.10
21722;DHT22;11023;48.274;7.794;2022-07-25T15:26:06;34.60;98.40
21722;DHT22;11023;48.274;7.794;2022-07-25T15:28:35;34.60;98.90
21722;DHT22;11023;48.274;7.794;2022-07-25T15:31:01;34.50;99.30
21722;DHT22;11023;48.274;7.794;2022-07-25T15:33:27;34.50;99.50
21722;DHT22;11023;48.274;7.794;2022-07-25T15:35:53;34.60;98.80
21722;DHT22;11023;48.274;7.794;2022-07-25T15:38:19;34.60;98.60
21722;DHT22;11023;48.274;7.794;2022-07-25T15:40:45;34.60;99.40
21722;DHT22;11023;48.274;7.794;2022-07-25T15:43:11;34.50;99.10
21722;DHT22;11023;48.274;7.794;2022-07-25T15:45:39;34.60;98.80
21722;DHT22;11023;48.274;7.794;2022-07-25T15:48:06;34.80;99.00
21722;DHT22;11023;48.274;7.794;2022-07-25T15:50:38;34.60;98.10
21722;DHT22;11023;48.274;7.794;2022-07-25T15:53:04;34.60;98.70